Time;durP1;ratioP1;P1;durP2;ratioP2;P2;SDS_P1;SDS_P2;PMS_P1;PMS_P2;Temp;Humidity;BMP_temperature;BMP_pressure;BME280_temperature;BME280_humidity;BME280_pressure;Samples;Min_cycle;Max_cycle;Signal;HPM_P1;HPM_P2
2024/02/26 00:01:10;;;;;;;1.95;1.55;;;;;;;2.10;100.00;96600.72;1224621;75;2931786;-64
2024/02/26 00:03:47;;;;;;;2.10;1.50;;;;;;;1.85;100.00;96598.22;1225095;75;2924979;-62
2024/02/26 00:06:20;;;;;;;2.35;1.75;;;;;;;2.01;100.00;96605.34;1224814;75;2923875;-63
2024/02/26 00:08:52;;;;;;;1.55;1.40;;;;;;;1.98;100.00;96601.56;1224251;75;2920968;-63
2024/02/26 00:11:25;;;;;;;2.15;1.40;;;;;;;1.97;100.00;96591.22;1224908;75;2917910;-65
2024/02/26 00:13:58;;;;;;;2.45;1.70;;;;;;;1.89;100.00;96588.78;1225395;75;2921146;-64
2024/02/26 00:16:31;;;;;;;1.90;1.55;;;;;;;1.90;100.00;96586.84;1224439;75;2920708;-65
2024/02/26 00:19:06;;;;;;;5.35;3.40;;;;;;;1.47;100.00;96583.06;1225155;75;2916115;-65
2024/02/26 00:21:43;;;;;;;4.90;3.10;;;;;;;1.49;100.00;96591.44;1224617;75;2919711;-65
2024/02/26 00:24:16;;;;;;;3.25;2.60;;;;;;;1.54;100.00;96585.50;1224818;75;2920927;-63
2024/02/26 00:26:52;;;;;;;2.75;2.25;;;;;;;1.73;100.00;96583.63;1225012;75;2937756;-64
2024/02/26 00:29:25;;;;;;;3.50;1.80;;;;;;;1.74;100.00;96577.03;1225126;75;2918908;-64
2024/02/26 00:31:58;;;;;;;2.60;1.90;;;;;;;1.64;100.00;96584.34;1224708;75;2919162;-64
2024/02/26 00:34:34;;;;;;;2.40;1.90;;;;;;;1.60;100.00;96588.34;1224754;75;2918735;-63
2024/02/26 00:37:07;;;;;;;4.10;2.50;;;;;;;1.39;100.00;96587.19;1225446;75;2918149;-64
2024/02/26 00:39:40;;;;;;;3.85;2.55;;;;;;;1.45;100.00;96585.44;1224637;75;2922197;-64
2024/02/26 00:42:13;;;;;;;3.45;2.50;;;;;;;1.45;100.00;96578.09;1224858;75;2927597;-61
2024/02/26 00:44:46;;;;;;;2.50;1.95;;;;;;;1.38;100.00;96577.59;1224478;75;2918602;-63
2024/02/26 00:47:18;;;;;;;3.60;2.30;;;;;;;1.37;100.00;96573.38;1224737;75;2918613;-60
2024/02/26 00:49:54;;;;;;;2.80;2.20;;;;;;;1.47;100.00;96573.00;1224112;75;2916906;-64
2024/02/26 00:52:27;;;;;;;3.15;2.30;;;;;;;1.33;100.00;96572.78;1224465;75;2919087;-62
2024/02/26 00:54:59;;;;;;;3.55;2.60;;;;;;;1.32;100.00;96566.63;1224264;75;2919456;-64
2024/02/26 00:57:32;;;;;;;2.45;1.95;;;;;;;1.37;100.00;96565.28;1224208;75;2922075;-63
2024/02/26 01:00:06;;;;;;;3.20;2.10;;;;;;;1.45;100.00;96564.59;1224633;75;2916728;-63
2024/02/26 01:02:41;;;;;;;3.05;2.05;;;;;;;1.32;100.00;96565.88;1224131;75;2914338;-61
2024/02/26 01:05:17;;;;;;;2.20;1.60;;;;;;;1.33;100.00;96570.84;1224769;75;2924370;-64
2024/02/26 01:07:50;;;;;;;3.30;2.15;;;;;;;1.17;100.00;96571.75;1224668;75;2925368;-63
2024/02/26 01:10:23;;;;;;;2.30;2.00;;;;;;;1.12;100.00;96558.13;1224595;75;2922237;-62
2024/02/26 01:12:56;;;;;;;2.65;1.95;;;;;;;1.04;100.00;96554.91;1224820;75;2918030;-61
2024/02/26 01:15:28;;;;;;;3.55;2.50;;;;;;;1.00;100.00;96554.28;1224407;75;2917163;-63
2024/02/26 01:18:02;;;;;;;3.50;2.55;;;;;;;0.93;100.00;96551.84;1224322;75;2926853;-62
2024/02/26 01:20:37;;;;;;;2.40;1.80;;;;;;;1.01;100.00;96556.56;1225406;75;2915951;-62
2024/02/26 01:23:10;;;;;;;2.20;1.75;;;;;;;1.06;100.00;96552.53;1224450;75;2938238;-63
2024/02/26 01:25:43;;;;;;;2.35;1.90;;;;;;;1.00;100.00;96548.91;1223981;75;2927602;-64
2024/02/26 01:28:16;;;;;;;3.10;2.35;;;;;;;0.96;100.00;96548.25;1223912;75;2916699;-62
2024/02/26 01:30:49;;;;;;;2.50;1.70;;;;;;;1.01;100.00;96545.00;1224741;75;2924052;-62
2024/02/26 01:33:22;;;;;;;1.85;1.70;;;;;;;0.98;100.00;96537.81;1224609;75;2917577;-64
2024/02/26 01:35:57;;;;;;;1.85;1.50;;;;;;;0.95;100.00;96538.69;1225276;75;2921681;-62
2024/02/26 01:38:30;;;;;;;2.15;1.40;;;;;;;0.89;100.00;96535.03;1224115;75;2922482;-64
2024/02/26 01:41:03;;;;;;;1.75;1.55;;;;;;;0.94;100.00;96537.16;1223664;75;2977331;-62
2024/02/26 01:43:36;;;;;;;2.30;2.10;;;;;;;0.77;100.00;96536.59;1224821;75;2916561;-64
2024/02/26 01:46:09;;;;;;;3.30;2.25;;;;;;;0.81;100.00;96532.59;1224131;75;2947653;-62
2024/02/26 01:48:42;;;;;;;1.65;1.50;;;;;;;0.84;100.00;96539.81;1223343;75;2919116;-63
2024/02/26 01:51:19;;;;;;;2.60;1.95;;;;;;;0.61;100.00;96529.44;1224385;75;2915704;-61
2024/02/26 01:53:52;;;;;;;2.35;1.85;;;;;;;0.77;100.00;96523.91;1223945;75;2927352;-63
2024/02/26 01:56:30;;;;;;;2.90;1.80;;;;;;;0.78;100.00;96521.94;1224828;75;2919580;-61
2024/02/26 01:59:03;;;;;;;1.10;1.00;;;;;;;0.71;100.00;96517.56;1224444;75;2920320;-64
2024/02/26 02:01:37;;;;;;;4.75;2.60;;;;;;;0.31;100.00;96523.50;1225262;75;2921555;-62
2024/02/26 02:04:10;;;;;;;4.85;3.15;;;;;;;0.20;100.00;96515.78;1224816;75;2921430;-63
2024/02/26 02:06:48;;;;;;;3.20;2.50;;;;;;;0.49;100.00;96512.16;1224576;75;2925037;-60
2024/02/26 02:09:22;;;;;;;5.60;2.90;;;;;;;0.49;100.00;96511.41;1224530;75;2922838;-64
2024/02/26 02:11:55;;;;;;;2.85;2.05;;;;;;;0.60;100.00;96511.78;1224817;75;2921009;-65
2024/02/26 02:14:30;;;;;;;3.35;2.15;;;;;;;0.61;100.00;96511.34;1224365;75;2924603;-62
2024/02/26 02:17:03;;;;;;;2.65;1.95;;;;;;;0.56;100.00;96516.56;1224581;75;2928723;-62
2024/02/26 02:19:35;;;;;;;2.25;1.60;;;;;;;0.65;100.00;96505.84;1225451;75;2920367;-62
2024/02/26 02:22:11;;;;;;;2.75;1.65;;;;;;;0.58;100.00;96508.78;1225207;75;2930822;-63
2024/02/26 02:24:44;;;;;;;3.30;1.80;;;;;;;0.59;100.00;96510.28;1225061;75;2920747;-64
2024/02/26 02:27:17;;;;;;;2.05;1.55;;;;;;;0.63;100.00;96508.22;1224637;75;2920468;-61
2024/02/26 02:29:50;;;;;;;2.25;1.80;;;;;;;0.54;100.00;96500.06;1224246;75;2929171;-63
2024/02/26 02:32:24;;;;;;;4.20;3.10;;;;;;;0.27;100.00;96501.34;1224106;75;2918948;-64
2024/02/26 02:34:58;;;;;;;4.55;3.20;;;;;;;0.52;100.00;96511.28;1224345;75;2914108;-61
2024/02/26 02:37:33;;;;;;;3.80;2.60;;;;;;;0.55;100.00;96501.56;1224780;75;2934080;-63
2024/02/26 02:40:06;;;;;;;2.50;2.00;;;;;;;0.45;100.00;96505.38;1224842;75;2918167;-65
2024/02/26 02:42:39;;;;;;;3.30;2.05;;;;;;;0.49;100.00;96501.38;1224326;75;2920927;-66
2024/02/26 02:45:13;;;;;;;3.85;2.40;;;;;;;0.38;100.00;96498.28;1223991;75;2955074;-67
2024/02/26 02:47:46;;;;;;;3.60;2.30;;;;;;;0.30;100.00;96500.47;1224743;75;2917628;-63
2024/02/26 02:50:19;;;;;;;2.95;2.30;;;;;;;0.41;100.00;96500.13;1223506;75;2928807;-61
2024/02/26 02:52:54;;;;;;;4.25;3.00;;;;;;;0.16;100.00;96506.31;1224218;75;2925829;-63
2024/02/26 02:55:27;;;;;;;4.60;3.10;;;;;;;0.13;100.00;96510.63;1224239;75;2924404;-63
2024/02/26 02:58:00;;;;;;;5.35;2.85;;;;;;;0.21;100.00;96521.91;1223803;75;2929237;-62
2024/02/26 03:00:32;;;;;;;3.90;2.80;;;;;;;0.37;100.00;96505.63;1225157;75;2920040;-64
2024/02/26 03:03:06;;;;;;;2.80;2.10;;;;;;;0.40;100.00;96509.38;1223015;75;2921954;-64
2024/02/26 03:05:38;;;;;;;3.20;2.10;;;;;;;0.32;100.00;96498.09;1220762;67;2949492;-60
2024/02/26 03:08:14;;;;;;;2.35;1.85;;;;;;;0.39;100.00;96505.94;1223503;75;2923922;-63
2024/02/26 03:10:47;;;;;;;3.20;2.30;;;;;;;0.33;100.00;96496.91;1224453;75;2919976;-62
2024/02/26 03:13:20;;;;;;;2.35;1.80;;;;;;;0.34;100.00;96498.41;1224109;75;2924617;-63
2024/02/26 03:15:53;;;;;;;2.60;1.85;;;;;;;0.23;100.00;96500.72;1223438;75;2925487;-62
2024/02/26 03:18:26;;;;;;;2.90;2.05;;;;;;;0.18;100.00;96493.94;1223334;75;2923273;-65
2024/02/26 03:21:02;;;;;;;3.70;1.80;;;;;;;0.31;100.00;96493.13;1223411;75;2931738;-62
2024/02/26 03:23:38;;;;;;;2.30;1.95;;;;;;;0.31;100.00;96485.81;1224155;75;2931167;-63
2024/02/26 03:26:13;;;;;;;2.55;1.70;;;;;;;0.28;100.00;96485.94;1223867;75;2926029;-63
2024/02/26 03:28:46;;;;;;;2.80;1.60;;;;;;;0.21;100.00;96481.53;1224058;75;2936916;-66
2024/02/26 03:31:19;;;;;;;2.45;1.65;;;;;;;0.14;100.00;96481.78;1223749;75;2922057;-64
2024/02/26 03:33:52;;;;;;;2.55;2.00;;;;;;;0.15;100.00;96481.34;1223447;75;2926179;-65
2024/02/26 03:36:25;;;;;;;1.45;1.35;;;;;;;0.17;100.00;96464.78;1223856;75;2925473;-64
2024/02/26 03:39:02;;;;;;;2.15;1.50;;;;;;;0.13;100.00;96458.75;1224198;75;2922857;-66
2024/02/26 03:41:34;;;;;;;2.80;1.70;;;;;;;0.09;100.00;96455.44;1224612;75;2923306;-62
2024/02/26 03:44:08;;;;;;;2.30;1.70;;;;;;;0.16;100.00;96452.50;1224292;75;2921698;-62
2024/02/26 03:46:42;;;;;;;2.55;1.50;;;;;;;0.15;100.00;96456.38;1223374;75;2928676;-64
2024/02/26 03:49:16;;;;;;;2.45;1.60;;;;;;;0.10;100.00;96459.63;1223496;75;2925327;-61
2024/02/26 03:51:49;;;;;;;1.95;1.45;;;;;;;0.09;100.00;96460.81;1223685;75;2938501;-62
2024/02/26 03:54:24;;;;;;;1.90;1.55;;;;;;;0.16;100.00;96463.25;1223475;75;2922056;-65
2024/02/26 03:56:57;;;;;;;1.90;1.50;;;;;;;0.12;100.00;96460.72;1224153;75;2919423;-62
2024/02/26 03:59:30;;;;;;;2.00;1.40;;;;;;;0.02;100.00;96466.41;1223646;75;2924086;-63
2024/02/26 04:02:03;;;;;;;1.80;1.40;;;;;;;0.01;100.00;96464.94;1222717;75;2944035;-65
2024/02/26 04:04:39;;;;;;;1.80;1.40;;;;;;;0.02;100.00;96458.34;1223658;75;2924849;-63
2024/02/26 04:07:13;;;;;;;6.45;2.70;;;;;;;-0.13;100.00;96460.75;1222429;75;2925570;-64
2024/02/26 04:09:48;;;;;;;8.95;4.80;;;;;;;-0.18;100.00;96470.13;1223695;75;2940201;-64
2024/02/26 04:12:21;;;;;;;6.35;4.30;;;;;;;0.11;100.00;96474.59;1223125;75;2919950;-64
2024/02/26 04:14:54;;;;;;;5.80;3.60;;;;;;;0.06;100.00;96465.13;1224062;75;2920007;-65
2024/02/26 04:17:27;;;;;;;5.10;3.30;;;;;;;0.14;100.00;96460.25;1223902;75;2925104;-63
2024/02/26 04:20:00;;;;;;;4.10;2.85;;;;;;;0.01;100.00;96471.06;1223319;75;2928671;-65
2024/02/26 04:22:33;;;;;;;5.25;2.90;;;;;;;-0.02;100.00;96475.38;1223388;75;2924548;-63
2024/02/26 04:25:09;;;;;;;3.85;2.20;;;;;;;0.02;100.00;96469.13;1223136;75;2919444;-66
2024/02/26 04:27:42;;;;;;;2.90;2.10;;;;;;;-0.07;100.00;96462.47;1222367;75;3001330;-61
2024/02/26 04:30:17;;;;;;;3.05;1.95;;;;;;;-0.07;100.00;96464.41;1223664;75;2923365;-65
2024/02/26 04:32:49;;;;;;;3.40;2.45;;;;;;;0.04;100.00;96466.75;1223144;75;2927812;-63
2024/02/26 04:35:22;;;;;;;2.55;1.65;;;;;;;-0.01;100.00;96466.09;1223019;75;2931082;-63
2024/02/26 04:37:55;;;;;;;1.75;1.50;;;;;;;0.02;100.00;96469.13;1223789;75;2925100;-64
2024/02/26 04:40:30;;;;;;;1.90;1.45;;;;;;;-0.02;100.00;96466.56;1223796;75;2923930;-66
2024/02/26 04:43:03;;;;;;;2.50;1.85;;;;;;;-0.10;100.00;96467.94;1223371;75;2924018;-64
2024/02/26 04:45:36;;;;;;;2.55;1.40;;;;;;;-0.07;100.00;96462.47;1223346;75;2924858;-61
2024/02/26 04:48:10;;;;;;;1.50;1.40;;;;;;;-0.18;100.00;96475.50;1223462;75;2932078;-63
2024/02/26 04:50:43;;;;;;;2.25;1.40;;;;;;;-0.13;100.00;96469.56;1223039;75;2933276;-65
2024/02/26 04:53:16;;;;;;;1.75;1.40;;;;;;;-0.19;100.00;96463.25;1223805;75;2925148;-65
2024/02/26 04:55:51;;;;;;;1.60;1.30;;;;;;;-0.20;100.00;96466.38;1222821;75;2929357;-62
2024/02/26 04:58:24;;;;;;;1.45;1.30;;;;;;;-0.14;100.00;96459.25;1224437;75;2912808;-63
2024/02/26 05:00:57;;;;;;;3.60;2.25;;;;;;;-0.23;100.00;96460.66;1222551;75;3014297;-61
2024/02/26 05:03:30;;;;;;;6.30;3.45;;;;;;;-0.24;100.00;96459.16;1223029;75;2919226;-66
2024/02/26 05:06:04;;;;;;;3.25;2.50;;;;;;;-0.02;100.00;96464.59;1223420;75;2930006;-66
2024/02/26 05:08:38;;;;;;;3.50;2.30;;;;;;;0.01;100.00;96454.16;1223098;75;2923220;-62
2024/02/26 05:11:13;;;;;;;2.95;2.40;;;;;;;-0.04;100.00;96466.22;1222922;75;2927742;-64
2024/02/26 05:13:46;;;;;;;5.05;2.85;;;;;;;-0.42;100.00;96472.41;1222127;75;2940624;-64
2024/02/26 05:16:21;;;;;;;4.85;3.20;;;;;;;-0.32;100.00;96467.88;1223196;75;2930694;-63
2024/02/26 05:18:53;;;;;;;6.15;2.90;;;;;;;-0.27;100.00;96468.06;1223017;75;2920307;-64
2024/02/26 05:21:26;;;;;;;5.35;3.40;;;;;;;-0.20;100.00;96458.28;1223102;75;2927099;-62
2024/02/26 05:24:01;;;;;;;5.05;3.15;;;;;;;-0.31;100.00;96464.78;1223125;75;2929123;-65
2024/02/26 05:26:36;;;;;;;6.20;3.90;;;;;;;-0.26;100.00;96464.22;1223290;75;2921826;-65
2024/02/26 05:29:09;;;;;;;5.65;3.75;;;;;;;-0.31;100.00;96464.78;1223250;75;2928863;-63
2024/02/26 05:31:42;;;;;;;9.35;6.10;;;;;;;-0.20;100.00;96458.28;1220205;75;2976134;-65
2024/02/26 05:34:15;;;;;;;8.70;5.80;;;;;;;-0.30;100.00;96460.88;1222130;75;2929664;-64
2024/02/26 05:36:49;;;;;;;7.97;4.88;;;;;;;-0.38;100.00;96456.19;1158255;75;5467088;-61
2024/02/26 05:39:21;;;;;;;8.55;4.45;;;;;;;-0.22;100.00;96454.13;1221237;75;2926323;-64
2024/02/26 05:41:57;;;;;;;14.45;9.10;;;;;;;-0.39;100.00;96454.66;1217517;75;2948597;-66
2024/02/26 05:44:32;;;;;;;10.65;6.90;;;;;;;-0.32;100.00;96454.44;1222164;75;2928806;-64
2024/02/26 05:47:05;;;;;;;7.75;5.20;;;;;;;-0.41;100.00;96459.72;1223904;75;2929749;-64
2024/02/26 05:49:37;;;;;;;5.75;3.95;;;;;;;-0.35;100.00;96461.44;1222943;75;2923459;-64
2024/02/26 05:52:10;;;;;;;4.55;3.15;;;;;;;-0.25;100.00;96475.72;1223267;75;2929733;-63
2024/02/26 05:54:43;;;;;;;4.10;2.65;;;;;;;-0.23;100.00;96471.41;1222343;83;2930621;-64
2024/02/26 05:57:19;;;;;;;3.00;2.40;;;;;;;-0.24;100.00;96469.16;1223335;75;2923161;-66
2024/02/26 05:59:52;;;;;;;3.25;2.20;;;;;;;-0.17;100.00;96466.22;1222469;75;2938492;-66
2024/02/26 06:02:24;;;;;;;3.20;2.10;;;;;;;-0.19;100.00;96476.69;1223409;75;2927077;-62
2024/02/26 06:04:57;;;;;;;3.75;2.60;;;;;;;-0.08;100.00;96479.78;1222995;75;2925142;-63
2024/02/26 06:07:30;;;;;;;2.90;2.30;;;;;;;0.00;100.00;96483.00;1221894;75;2917428;-64
2024/02/26 06:10:04;;;;;;;3.00;2.15;;;;;;;-0.01;100.00;96479.56;1223466;75;2932928;-64
2024/02/26 06:12:41;;;;;;;1.85;1.65;;;;;;;0.07;100.00;96474.69;1223173;75;2925137;-64
2024/02/26 06:15:14;;;;;;;2.20;1.70;;;;;;;0.10;100.00;96481.91;1223339;75;2941162;-66
2024/02/26 06:17:47;;;;;;;3.25;1.60;;;;;;;0.20;100.00;96483.50;1223545;75;2928915;-60
2024/02/26 06:20:20;;;;;;;2.20;1.60;;;;;;;0.23;100.00;96492.63;1222143;75;2934076;-61
2024/02/26 06:22:53;;;;;;;2.15;1.70;;;;;;;0.27;100.00;96487.88;1222135;75;2928652;-64
2024/02/26 06:25:26;;;;;;;2.20;1.45;;;;;;;0.34;100.00;96492.28;1223121;75;2924398;-64
2024/02/26 06:28:01;;;;;;;5.55;2.10;;;;;;;0.34;100.00;96495.72;1223028;75;2933129;-63
2024/02/26 06:30:34;;;;;;;6.80;3.50;;;;;;;0.34;100.00;96493.03;1223774;75;2923089;-61
2024/02/26 06:33:08;;;;;;;7.05;4.15;;;;;;;0.37;100.00;96494.84;1223036;75;2921239;-64
2024/02/26 06:35:41;;;;;;;7.65;4.00;;;;;;;0.32;100.00;96497.34;1222508;75;2930137;-64
2024/02/26 06:38:14;;;;;;;7.70;4.10;;;;;;;0.35;100.00;96499.16;1223561;75;2923397;-65
2024/02/26 06:40:48;;;;;;;7.45;4.30;;;;;;;0.39;100.00;96518.66;1223656;75;2920251;-62
2024/02/26 06:43:23;;;;;;;6.40;3.60;;;;;;;0.50;100.00;96510.94;1222775;75;2927128;-63
2024/02/26 06:45:56;;;;;;;6.60;4.00;;;;;;;0.61;100.00;96516.75;1223141;75;2926062;-65
2024/02/26 06:48:29;;;;;;;5.90;4.00;;;;;;;0.69;100.00;96521.88;1223036;75;2930859;-63
2024/02/26 06:51:02;;;;;;;4.55;3.05;;;;;;;0.88;100.00;96517.38;1196375;75;5001538;-61
2024/02/26 06:53:35;;;;;;;6.15;4.10;;;;;;;0.82;100.00;96522.59;1223327;75;2924689;-63
2024/02/26 06:56:08;;;;;;;5.45;3.80;;;;;;;1.12;100.00;96525.78;1223647;75;2925338;-63
2024/02/26 06:58:44;;;;;;;4.75;3.30;;;;;;;1.35;100.00;96527.22;1222879;75;2958283;-64
2024/02/26 07:01:17;;;;;;;6.10;3.80;;;;;;;1.48;100.00;96525.22;1223042;75;2925134;-61
2024/02/26 07:03:50;;;;;;;3.60;2.75;;;;;;;1.79;100.00;96525.19;1223679;75;2928461;-65
2024/02/26 07:06:22;;;;;;;4.15;2.90;;;;;;;1.78;100.00;96539.13;1223528;75;2923237;-63
2024/02/26 07:08:55;;;;;;;3.70;2.90;;;;;;;2.11;100.00;96526.63;1216073;75;2931129;-62
2024/02/26 07:11:28;;;;;;;4.25;3.10;;;;;;;2.18;100.00;96527.56;1221192;75;2927632;-62
2024/02/26 07:14:04;;;;;;;4.15;3.00;;;;;;;2.45;100.00;96532.97;1223337;75;2943512;-63
2024/02/26 07:16:37;;;;;;;5.20;3.20;;;;;;;2.68;100.00;96536.31;1224317;75;2930719;-58
2024/02/26 07:19:10;;;;;;;4.50;3.05;;;;;;;2.78;100.00;96537.81;1196688;75;5047172;-64
2024/02/26 07:21:42;;;;;;;4.45;3.30;;;;;;;3.09;100.00;96534.19;1223107;75;2935889;-63
2024/02/26 07:24:15;;;;;;;3.85;3.45;;;;;;;3.11;100.00;96529.09;1223929;75;2929327;-65
2024/02/26 07:26:48;;;;;;;5.85;3.35;;;;;;;3.40;100.00;96540.13;1224297;75;2922240;-65
2024/02/26 07:29:24;;;;;;;4.55;3.15;;;;;;;3.76;100.00;96537.78;1222770;75;2926464;-63
2024/02/26 07:31:57;;;;;;;4.55;3.45;;;;;;;3.78;100.00;96541.53;1223836;75;2924090;-62
2024/02/26 07:34:30;;;;;;;6.55;4.60;;;;;;;3.84;100.00;96536.22;1223037;75;2929576;-60
2024/02/26 07:37:03;;;;;;;6.45;4.80;;;;;;;4.04;100.00;96536.44;1223392;75;2926889;-61
2024/02/26 07:39:36;;;;;;;6.10;4.30;;;;;;;4.72;100.00;96542.50;1223274;75;2930788;-66
2024/02/26 07:42:09;;;;;;;4.45;3.35;;;;;;;5.09;100.00;96543.69;1223992;75;2892219;-62
2024/02/26 07:44:45;;;;;;;3.10;2.45;;;;;;;5.25;100.00;96536.31;1223158;75;2925025;-62
2024/02/26 07:47:18;;;;;;;2.85;2.40;;;;;;;5.29;100.00;96531.44;1221480;75;2940004;-63
2024/02/26 07:49:50;;;;;;;3.90;2.30;;;;;;;5.78;100.00;96532.75;1220483;75;2928460;-61
2024/02/26 07:52:23;;;;;;;4.00;2.75;;;;;;;6.12;100.00;96533.25;1222454;75;2923183;-62
2024/02/26 07:54:57;;;;;;;5.70;3.35;;;;;;;6.31;100.00;96531.03;1221897;75;2927406;-63
2024/02/26 07:57:30;;;;;;;5.15;3.20;;;;;;;6.33;100.00;96537.50;1222624;67;2932026;-66
2024/02/26 08:00:09;;;;;;;5.55;3.45;;;;;;;6.74;97.45;96536.75;1221785;75;2924320;-65
2024/02/26 08:02:47;;;;;;;3.50;2.40;;;;;;;7.43;94.27;96547.84;1223021;67;2924171;-62
2024/02/26 08:05:20;;;;;;;5.40;3.10;;;;;;;7.55;93.21;96545.97;1221723;75;2926739;-65
2024/02/26 08:07:53;;;;;;;4.80;3.40;;;;;;;7.83;88.17;96546.19;1221678;75;3013761;-67
2024/02/26 08:10:25;;;;;;;5.10;3.30;;;;;;;8.23;86.68;96552.66;1222827;75;2925278;-64
2024/02/26 08:13:04;;;;;;;4.65;2.70;;;;;;;8.25;84.45;96550.19;1223947;75;2935078;-64
2024/02/26 08:15:40;;;;;;;4.30;2.75;;;;;;;8.67;81.00;96557.63;1221998;75;2929673;-63
2024/02/26 08:18:13;;;;;;;4.95;2.95;;;;;;;8.47;80.99;96550.34;1207029;75;4102063;-63
2024/02/26 08:20:47;;;;;;;3.70;2.75;;;;;;;8.60;83.43;96549.16;1222669;75;2931236;-62
2024/02/26 08:23:21;;;;;;;8.90;3.40;;;;;;;8.05;81.41;96546.34;1222452;75;2929908;-68
2024/02/26 08:25:54;;;;;;;7.60;3.95;;;;;;;8.07;82.39;96548.59;1224404;75;2924197;-61
2024/02/26 08:28:26;;;;;;;4.75;2.90;;;;;;;8.67;78.11;96557.63;1223362;75;2920964;-66
2024/02/26 08:31:02;;;;;;;7.85;3.50;;;;;;;8.45;79.75;96555.53;1224525;75;2928693;-64
2024/02/26 08:33:35;;;;;;;7.90;3.00;;;;;;;9.07;79.63;96553.06;1224246;75;2921131;-67
2024/02/26 08:36:09;;;;;;;6.15;3.70;;;;;;;9.07;75.88;96552.31;1223786;75;2934870;-62
2024/02/26 08:38:42;;;;;;;5.45;3.10;;;;;;;9.00;75.68;96552.78;1223958;75;2852835;-64
2024/02/26 08:41:15;;;;;;;8.55;3.40;;;;;;;9.64;75.46;96553.88;1223562;75;2930891;-64
2024/02/26 08:43:48;;;;;;;7.30;3.90;;;;;;;8.93;74.74;96545.81;1224138;75;2927174;-65
2024/02/26 08:46:24;;;;;;;5.00;3.10;;;;;;;9.47;75.05;96561.31;1223150;75;2927197;-67
2024/02/26 08:48:57;;;;;;;7.85;3.50;;;;;;;9.46;74.58;96555.13;1222844;75;2923677;-62
2024/02/26 08:51:30;;;;;;;4.20;2.80;;;;;;;10.17;71.54;96565.03;1222683;75;2928163;-61
2024/02/26 08:54:02;;;;;;;5.50;3.45;;;;;;;9.68;73.44;96568.06;1222756;75;2932905;-62
2024/02/26 08:56:35;;;;;;;6.00;2.85;;;;;;;9.42;74.40;96565.53;1223384;75;2936468;-62
2024/02/26 08:59:08;;;;;;;5.85;3.60;;;;;;;10.37;73.02;96566.78;1223752;75;2925365;-64
2024/02/26 09:01:44;;;;;;;6.80;3.00;;;;;;;9.24;70.35;96566.00;1222720;75;2942955;-63
2024/02/26 09:04:19;;;;;;;7.10;2.45;;;;;;;10.47;68.18;96565.28;1223458;75;2948227;-63
2024/02/26 09:06:54;;;;;;;4.95;1.90;;;;;;;10.34;68.41;96570.50;1223799;75;2918384;-63
2024/02/26 09:09:27;;;;;;;2.70;1.70;;;;;;;9.64;67.76;96562.06;1222110;75;2917769;-63
2024/02/26 09:12:00;;;;;;;2.60;1.40;;;;;;;9.58;68.45;96561.34;1223435;75;2921443;-64
2024/02/26 09:14:33;;;;;;;2.30;1.40;;;;;;;10.08;67.65;96546.91;1223362;75;2928050;-64
2024/02/26 09:17:08;;;;;;;2.40;1.35;;;;;;;10.58;65.13;96546.09;1223443;75;2918743;-63
2024/02/26 09:19:42;;;;;;;4.20;1.70;;;;;;;9.42;66.79;96551.88;1222447;75;2924581;-63
2024/02/26 09:22:14;;;;;;;6.10;2.15;;;;;;;9.77;67.43;96553.41;1223624;75;2921096;-65
2024/02/26 09:24:47;;;;;;;3.90;1.55;;;;;;;10.21;66.48;96551.88;1223427;75;2923968;-61
2024/02/26 09:27:20;;;;;;;4.70;1.70;;;;;;;9.67;66.84;96555.63;1223679;75;2926059;-62
2024/02/26 09:29:53;;;;;;;2.00;1.30;;;;;;;10.05;66.36;96558.09;1222701;75;2923848;-64
2024/02/26 09:32:29;;;;;;;1.60;1.00;;;;;;;10.59;66.07;96555.78;1221282;75;2981519;-64
2024/02/26 09:35:03;;;;;;;2.70;1.15;;;;;;;10.62;65.57;96551.28;1221255;75;2932830;-66
2024/02/26 09:37:36;;;;;;;2.85;1.40;;;;;;;10.75;64.96;96548.00;1221916;75;2922061;-63
2024/02/26 09:40:11;;;;;;;2.75;1.70;;;;;;;9.74;67.67;96559.84;1221653;75;2932537;-63
2024/02/26 09:42:48;;;;;;;2.90;1.40;;;;;;;10.71;66.01;96555.75;1223360;75;2922829;-65
2024/02/26 09:45:24;;;;;;;2.60;1.50;;;;;;;10.88;64.18;96573.59;1222765;75;2929273;-63
2024/02/26 09:48:00;;;;;;;2.10;1.40;;;;;;;11.48;65.01;96575.03;1221381;75;2920276;-64
2024/02/26 09:50:33;;;;;;;2.25;1.30;;;;;;;11.99;62.69;96564.47;1222820;75;2926761;-62
2024/02/26 09:53:10;;;;;;;2.40;1.25;;;;;;;11.65;62.54;96569.44;1223185;83;2953347;-65
2024/02/26 09:55:43;;;;;;;1.40;1.10;;;;;;;11.54;64.02;96569.50;1222796;75;2920410;-63
2024/02/26 09:58:18;;;;;;;2.55;1.40;;;;;;;11.03;62.09;96561.59;1222961;75;2919963;-65
2024/02/26 10:00:59;;;;;;;3.05;1.55;;;;;;;11.21;62.15;96561.00;1224101;75;2920627;-60
2024/02/26 10:03:43;;;;;;;2.35;1.30;;;;;;;12.42;60.04;96558.31;1223453;75;2921922;-66
2024/02/26 10:06:16;;;;;;;3.05;1.70;;;;;;;12.17;61.75;96556.81;1224151;75;2920111;-61
2024/02/26 10:08:51;;;;;;;3.95;1.95;;;;;;;12.54;61.14;96561.69;1222571;75;2929736;-64
2024/02/26 10:11:25;;;;;;;2.60;1.40;;;;;;;12.32;59.45;96562.69;1224511;75;2921548;-66
2024/02/26 10:13:58;;;;;;;5.15;3.10;;;;;;;12.13;58.15;96562.59;1223782;75;2922344;-62
2024/02/26 10:16:34;;;;;;;3.35;1.75;;;;;;;12.30;58.42;96570.69;1222874;75;2925633;-65
2024/02/26 10:19:09;;;;;;;2.35;1.35;;;;;;;12.87;56.81;96565.31;1220955;75;2974922;-61
2024/02/26 10:21:51;;;;;;;1.90;0.90;;;;;;;13.82;54.39;96563.28;1211184;75;3457856;-64
2024/02/26 10:24:24;;;;;;;2.35;1.10;;;;;;;12.74;56.16;96563.22;1217712;75;3201604;-63
2024/02/26 10:26:58;;;;;;;2.90;1.00;;;;;;;13.34;53.47;96573.97;1224030;75;2924436;-66
2024/02/26 10:29:30;;;;;;;2.70;0.95;;;;;;;13.10;54.24;96565.78;1222572;75;2927724;-67
2024/02/26 10:32:03;;;;;;;1.95;0.95;;;;;;;13.18;53.95;96572.94;1224639;75;2919035;-64
2024/02/26 10:34:41;;;;;;;2.40;1.10;;;;;;;13.13;53.73;96579.25;1224627;75;2919047;-66
2024/02/26 10:37:14;;;;;;;3.00;1.00;;;;;;;11.81;57.04;96579.53;1224262;75;2926937;-63
2024/02/26 10:39:51;;;;;;;1.35;0.70;;;;;;;12.09;56.43;96570.38;1224441;75;2929462;-65
2024/02/26 10:42:24;;;;;;;1.65;0.90;;;;;;;12.27;56.54;96566.22;1223230;75;2921141;-65
2024/02/26 10:45:02;;;;;;;4.00;1.15;;;;;;;11.82;56.97;96566.56;1223965;75;2923737;-66
2024/02/26 10:47:35;;;;;;;1.80;0.70;;;;;;;12.65;55.81;96566.31;1224907;75;2917436;-62
2024/02/26 10:50:12;;;;;;;2.15;1.10;;;;;;;11.93;57.16;96566.53;1224314;75;2926276;-64
2024/02/26 10:52:46;;;;;;;1.70;1.00;;;;;;;12.33;56.05;96575.88;1224320;75;2922753;-64
2024/02/26 10:55:21;;;;;;;2.35;1.10;;;;;;;12.94;55.24;96570.22;1221843;75;2924924;-63
2024/02/26 10:57:56;;;;;;;3.45;1.30;;;;;;;12.29;55.47;96572.69;1220271;75;3073396;-65
2024/02/26 11:00:31;;;;;;;3.75;1.50;;;;;;;12.77;55.53;96568.44;1223392;75;2929028;-61
2024/02/26 11:03:05;;;;;;;2.20;1.10;;;;;;;12.80;56.24;96574.91;1224608;75;2919617;-62
2024/02/26 11:05:42;;;;;;;3.75;1.50;;;;;;;11.88;57.65;96572.78;1222550;75;2925636;-66
2024/02/26 11:08:16;;;;;;;3.20;1.30;;;;;;;12.64;57.10;96567.59;1224116;75;2920530;-64
2024/02/26 11:10:51;;;;;;;2.85;1.25;;;;;;;12.66;55.69;96559.56;1223734;75;2924727;-64
2024/02/26 11:13:26;;;;;;;2.05;1.00;;;;;;;12.70;55.59;96558.03;1223828;75;2928207;-64
2024/02/26 11:16:00;;;;;;;3.55;1.10;;;;;;;11.80;57.55;96563.59;1224089;75;2929442;-66
2024/02/26 11:18:33;;;;;;;2.25;1.10;;;;;;;12.28;57.15;96554.72;1223811;67;2964841;-67
2024/02/26 11:21:11;;;;;;;2.05;1.10;;;;;;;13.32;56.06;96557.25;1224555;75;2924868;-62
2024/02/26 11:23:44;;;;;;;2.10;1.00;;;;;;;12.55;55.82;96543.97;1224152;75;2926295;-62
2024/02/26 11:26:19;;;;;;;2.10;1.15;;;;;;;13.49;55.01;96546.03;1224093;75;2929663;-63
2024/02/26 11:28:54;;;;;;;2.85;1.40;;;;;;;12.84;55.58;96545.13;1223659;75;2920585;-62
2024/02/26 11:31:29;;;;;;;2.50;1.00;;;;;;;13.40;54.90;96549.91;1224173;75;2931474;-62
2024/02/26 11:34:02;;;;;;;1.45;0.90;;;;;;;14.56;53.88;96538.03;1223157;75;2925635;-62
2024/02/26 11:36:40;;;;;;;2.05;1.05;;;;;;;14.27;53.01;96538.50;1223487;75;2930646;-67
2024/02/26 11:39:16;;;;;;;2.10;1.00;;;;;;;14.83;52.34;96522.94;1223682;75;2924719;-62
2024/02/26 11:41:49;;;;;;;1.90;1.30;;;;;;;14.31;51.93;96529.94;1222809;83;2944674;-63
2024/02/26 11:44:33;;;;;;;3.30;1.30;;;;;;;14.13;52.54;96519.75;1223042;75;2924222;-62
2024/02/26 11:47:15;;;;;;;2.05;1.10;;;;;;;15.14;51.84;96520.56;1224223;75;2921736;-62